createdAt,value
2023-03-20T00:03:32.248Z,11.67
2023-03-20T00:07:33.381Z,12.83
2023-03-20T00:11:38.789Z,12.53
2023-03-20T00:15:42.351Z,11.27
2023-03-20T00:19:43.577Z,12.33
2023-03-20T00:23:45.630Z,11.20
2023-03-20T00:27:47.344Z,11.30
2023-03-20T00:31:48.868Z,12.07
2023-03-20T00:35:49.959Z,9.70
2023-03-20T00:39:51.078Z,10.97
2023-03-20T00:43:58.848Z,9.70
2023-03-20T00:48:01.238Z,11.43
2023-03-20T00:52:03.394Z,10.83
2023-03-20T00:56:05.393Z,11.20
2023-03-20T01:00:10.711Z,10.67
2023-03-20T01:04:14.740Z,10.67
2023-03-20T01:08:19.254Z,9.53
2023-03-20T01:12:20.331Z,10.33
2023-03-20T01:16:24.080Z,10.30
2023-03-20T01:20:28.257Z,9.37
2023-03-20T01:24:29.209Z,9.23
2023-03-20T01:28:31.804Z,10.63
2023-03-20T01:32:32.860Z,11.50
2023-03-20T01:36:33.948Z,12.30
2023-03-20T01:41:03.136Z,13.73
2023-03-20T01:45:14.413Z,14.63
2023-03-20T01:49:22.233Z,16.93
2023-03-20T01:53:26.939Z,18.73
2023-03-20T01:57:28.159Z,22.97
2023-03-20T02:01:29.616Z,24.50
2023-03-20T02:05:31.458Z,23.90
2023-03-20T02:09:32.553Z,26.43
2023-03-20T02:13:34.633Z,29.93
2023-03-20T02:17:35.816Z,31.40
2023-03-20T02:21:49.885Z,30.40
2023-03-20T02:26:14.138Z,32.70
2023-03-20T02:30:40.384Z,33.37
2023-03-20T02:34:56.846Z,38.07
2023-03-20T02:39:04.804Z,35.23
2023-03-20T02:43:18.413Z,38.63
2023-03-20T02:47:28.677Z,36.67
2023-03-20T02:51:45.910Z,37.47
2023-03-20T02:55:59.447Z,36.33
2023-03-20T03:00:13.528Z,38.13
2023-03-20T03:04:29.711Z,39.20
2023-03-20T03:08:34.517Z,39.83
2023-03-20T03:12:39.513Z,42.00
2023-03-20T03:16:42.610Z,41.10
2023-03-20T03:20:46.166Z,43.73
2023-03-20T03:24:50.788Z,43.40
2023-03-20T03:28:56.205Z,46.47
2023-03-20T03:33:23.395Z,47.70
2023-03-20T03:37:28.177Z,48.73
2023-03-20T03:41:41.708Z,47.27
2023-03-20T03:45:46.520Z,50.10
2023-03-20T03:49:57.212Z,50.17
2023-03-20T03:54:02.157Z,52.47
2023-03-20T03:58:09.948Z,57.53
2023-03-20T04:02:12.211Z,59.40
2023-03-20T04:06:16.158Z,52.83
2023-03-20T04:10:17.380Z,52.00
2023-03-20T04:14:18.920Z,53.80
2023-03-20T04:18:19.879Z,53.00
2023-03-20T04:22:20.948Z,52.57
2023-03-20T04:26:23.069Z,58.00
2023-03-20T04:30:24.072Z,60.07
2023-03-20T04:34:25.117Z,61.40
2023-03-20T04:38:26.668Z,61.37
2023-03-20T04:42:27.665Z,61.93
2023-03-20T04:46:28.704Z,59.33
2023-03-20T04:50:29.836Z,58.83
2023-03-20T04:54:31.126Z,58.93
2023-03-20T04:58:32.753Z,60.13
2023-03-20T05:02:33.916Z,58.40
2023-03-20T05:06:35.329Z,56.73
2023-03-20T05:14:39.924Z,54.70
2023-03-20T05:18:41.000Z,56.77
2023-03-20T05:22:42.259Z,53.63
2023-03-20T05:26:43.447Z,59.93
2023-03-20T05:30:44.840Z,53.23
2023-03-20T05:34:45.893Z,53.67
2023-03-20T05:38:46.993Z,52.93
2023-03-20T05:42:47.973Z,52.00
2023-03-20T05:46:48.999Z,51.63
2023-03-20T05:50:50.291Z,51.20
2023-03-20T05:54:51.271Z,51.57
2023-03-20T05:58:52.412Z,48.20
2023-03-20T06:02:53.678Z,49.27
2023-03-20T06:06:54.766Z,47.57
2023-03-20T06:10:56.029Z,48.40
2023-03-20T06:14:57.153Z,47.80
2023-03-20T06:18:58.981Z,46.67
2023-03-20T06:23:00.118Z,47.03
2023-03-20T06:27:01.255Z,45.43
2023-03-20T06:31:02.455Z,43.20
2023-03-20T06:35:05.338Z,42.30
2023-03-20T06:39:07.100Z,42.73
2023-03-20T06:43:08.408Z,41.00
2023-03-20T06:47:09.576Z,40.33
2023-03-20T06:51:10.887Z,42.90
2023-03-20T06:55:12.020Z,41.70
2023-03-20T06:59:13.348Z,37.13
2023-03-20T07:03:15.318Z,36.30
2023-03-20T07:07:16.621Z,35.67
2023-03-20T07:11:17.997Z,34.33
2023-03-20T07:15:19.686Z,34.33
2023-03-20T07:19:20.970Z,34.03
2023-03-20T07:23:22.114Z,35.43
2023-03-20T07:27:23.319Z,32.77
2023-03-20T07:31:28.332Z,35.13
2023-03-20T07:35:29.994Z,30.50
2023-03-20T07:39:31.547Z,33.03
2023-03-20T07:43:33.007Z,32.47
2023-03-20T07:47:34.732Z,31.37
2023-03-20T07:51:36.002Z,30.67
2023-03-20T07:55:37.499Z,31.03
2023-03-20T07:59:38.787Z,29.37
2023-03-20T08:03:39.970Z,29.60
2023-03-20T08:07:41.119Z,28.40
2023-03-20T08:11:42.594Z,28.43
2023-03-20T08:15:43.974Z,30.03
2023-03-20T08:19:45.374Z,27.00
2023-03-20T08:23:46.476Z,29.40
2023-03-20T08:27:48.063Z,28.67
2023-03-20T08:31:49.253Z,29.10
2023-03-20T08:35:58.085Z,31.10
2023-03-20T08:39:59.052Z,29.77
2023-03-20T08:44:01.121Z,26.77
2023-03-20T08:48:02.417Z,27.20
2023-03-20T08:52:03.873Z,26.43
2023-03-20T08:56:05.896Z,25.53
2023-03-20T09:00:09.151Z,23.40
2023-03-20T09:04:11.477Z,23.07
2023-03-20T09:08:13.125Z,23.47
2023-03-20T09:12:14.349Z,23.47
2023-03-20T09:16:15.974Z,22.90
2023-03-20T09:20:28.684Z,13.60
2023-03-20T09:24:30.829Z,14.87
2023-03-20T09:28:32.027Z,12.97
2023-03-20T09:32:34.405Z,14.80
2023-03-20T09:36:35.858Z,14.97
2023-03-20T09:40:43.580Z,15.03
2023-03-20T09:44:51.316Z,15.03
2023-03-20T09:49:18.660Z,12.27
2023-03-20T09:53:32.430Z,14.73
2023-03-20T09:57:45.834Z,15.30
2023-03-20T10:01:53.814Z,13.90
2023-03-20T10:06:04.026Z,12.60
2023-03-20T10:10:07.304Z,12.57
2023-03-20T10:14:31.669Z,13.53
2023-03-20T10:18:36.203Z,12.93
2023-03-20T10:22:49.971Z,11.63
2023-03-20T10:26:53.317Z,13.20
2023-03-20T10:31:17.632Z,12.17
2023-03-20T10:35:25.785Z,12.67
2023-03-20T10:39:56.398Z,12.30
2023-03-20T10:43:59.064Z,10.67
2023-03-20T10:48:03.897Z,9.77
2023-03-20T10:52:08.922Z,10.97
2023-03-20T10:56:16.894Z,10.80
2023-03-20T11:00:20.916Z,11.87
2023-03-20T11:04:22.163Z,10.60
2023-03-20T11:08:25.518Z,10.37
2023-03-20T11:12:30.579Z,10.50
2023-03-20T11:16:36.260Z,12.37
2023-03-20T11:20:41.166Z,13.57
2023-03-20T11:24:45.514Z,12.30
2023-03-20T11:28:49.892Z,12.33
2023-03-20T11:32:54.591Z,11.63
2023-03-20T11:37:09.721Z,10.47
2023-03-20T11:41:04.464Z,11.17
2023-03-20T11:45:09.031Z,10.00
2023-03-20T11:49:20.259Z,8.60
2023-03-20T11:53:33.858Z,8.27
2023-03-20T11:57:41.431Z,7.43
2023-03-20T12:01:48.594Z,8.63
2023-03-20T12:05:49.565Z,7.83
2023-03-20T12:09:54.529Z,5.77
2023-03-20T12:13:59.896Z,6.20
2023-03-20T12:18:07.500Z,6.63
2023-03-20T12:22:18.234Z,5.53
2023-03-20T12:26:37.749Z,5.27
2023-03-20T12:30:51.628Z,6.13
2023-03-20T12:34:59.200Z,5.50
2023-03-20T12:39:06.160Z,4.63
2023-03-20T12:43:14.169Z,5.47
2023-03-20T12:47:52.226Z,4.83
2023-03-20T12:52:02.604Z,4.30
2023-03-20T12:56:13.872Z,4.50
2023-03-20T13:00:24.940Z,3.67
2023-03-20T13:04:45.534Z,3.30
2023-03-20T13:08:50.587Z,3.07
2023-03-20T13:13:07.666Z,3.40
2023-03-20T13:17:30.718Z,3.33
2023-03-20T13:21:41.732Z,3.90
2023-03-20T13:25:53.500Z,3.37
2023-03-20T13:30:15.175Z,3.97
2023-03-20T13:34:35.330Z,4.47
2023-03-20T13:38:40.439Z,4.80
2023-03-20T13:42:51.412Z,4.10
2023-03-20T13:47:05.595Z,3.83
2023-03-20T13:51:30.550Z,3.93
2023-03-20T13:55:46.596Z,3.50
2023-03-20T14:00:00.565Z,4.10
2023-03-20T14:04:02.446Z,4.47
2023-03-20T14:08:19.908Z,3.93
2023-03-20T14:12:24.546Z,3.73
2023-03-20T14:16:28.440Z,3.87
2023-03-20T14:20:38.945Z,3.60
2023-03-20T14:24:43.909Z,3.97
2023-03-20T14:29:00.497Z,3.60
2023-03-20T14:33:07.960Z,3.70
2023-03-20T14:37:12.720Z,4.27
2023-03-20T14:41:23.609Z,4.23
2023-03-20T14:45:46.417Z,3.57
2023-03-20T14:50:26.167Z,3.97
2023-03-20T14:54:29.785Z,3.87
2023-03-20T14:58:49.137Z,3.07
2023-03-20T15:02:53.247Z,3.67
2023-03-20T15:07:01.242Z,3.13
2023-03-20T15:11:10.988Z,3.43
2023-03-20T15:15:25.073Z,3.33
2023-03-20T15:19:26.885Z,3.03
2023-03-20T15:23:27.989Z,3.10
2023-03-20T15:27:29.070Z,3.57
2023-03-20T15:31:33.921Z,3.53
2023-03-20T15:35:35.137Z,3.37
2023-03-20T15:39:46.115Z,3.43
2023-03-20T15:43:47.252Z,3.90
2023-03-20T15:47:48.236Z,4.27
2023-03-20T15:51:50.865Z,3.97
2023-03-20T15:56:04.438Z,3.20
2023-03-20T15:59:58.758Z,3.97
2023-03-20T16:04:00.757Z,3.90
2023-03-20T16:08:21.631Z,3.73
2023-03-20T16:12:23.014Z,3.63
2023-03-20T16:16:24.357Z,4.10
2023-03-20T16:20:29.396Z,3.03
2023-03-20T16:24:36.684Z,3.47
2023-03-20T16:28:38.231Z,3.57
2023-03-20T16:32:42.803Z,3.90
2023-03-20T16:36:47.696Z,4.07
2023-03-20T16:40:49.676Z,3.57
2023-03-20T16:44:57.815Z,3.73
2023-03-20T16:49:19.021Z,3.73
2023-03-20T16:53:20.311Z,4.07
2023-03-20T16:57:21.928Z,4.00
2023-03-20T17:01:26.742Z,4.10
2023-03-20T17:05:43.412Z,4.73
2023-03-20T17:10:20.115Z,4.83
2023-03-20T17:14:21.128Z,5.83
2023-03-20T17:18:22.087Z,4.90
2023-03-20T17:22:25.145Z,4.53
2023-03-20T17:26:26.427Z,4.20
2023-03-20T17:30:27.598Z,3.97
2023-03-20T17:34:28.669Z,5.00
2023-03-20T17:38:30.890Z,4.23
2023-03-20T17:42:32.612Z,4.30
2023-03-20T17:46:40.264Z,3.77
2023-03-20T17:50:37.170Z,4.62
2023-03-20T17:54:38.544Z,4.07
2023-03-20T17:58:42.938Z,4.30
2023-03-20T18:02:43.977Z,5.23
2023-03-20T18:06:47.071Z,6.67
2023-03-20T18:10:49.841Z,6.73
2023-03-20T18:14:51.093Z,7.47
2023-03-20T18:18:53.237Z,5.67
2023-03-20T18:22:54.342Z,4.80
2023-03-20T18:26:55.799Z,4.37
2023-03-20T18:30:57.278Z,5.00
2023-03-20T18:34:58.506Z,5.43
2023-03-20T18:38:59.904Z,8.47
2023-03-20T18:43:01.764Z,6.00
2023-03-20T18:47:02.795Z,4.60
2023-03-20T18:51:04.151Z,4.60
2023-03-20T18:55:06.153Z,5.07
2023-03-20T18:59:07.657Z,5.03
2023-03-20T19:03:10.641Z,4.53
2023-03-20T19:07:12.565Z,4.63
2023-03-20T19:11:20.538Z,4.97
2023-03-20T19:15:22.054Z,3.97
2023-03-20T19:19:23.144Z,5.10
2023-03-20T19:23:25.741Z,4.93
2023-03-20T19:27:27.352Z,5.30
2023-03-20T19:31:28.787Z,5.23
2023-03-20T19:35:54.392Z,5.37
2023-03-20T19:39:34.766Z,6.63
2023-03-20T19:43:51.482Z,6.73
2023-03-20T19:47:39.783Z,7.53
2023-03-20T19:51:41.239Z,6.63
2023-03-20T19:55:42.937Z,7.03
2023-03-20T19:59:44.224Z,6.37
2023-03-20T20:03:45.686Z,6.27
2023-03-20T20:08:17.106Z,6.10
2023-03-20T20:11:49.981Z,5.10
2023-03-20T20:15:51.910Z,6.17
2023-03-20T20:19:54.387Z,4.90
2023-03-20T20:23:55.687Z,4.93
2023-03-20T20:27:56.702Z,5.73
2023-03-20T20:31:59.287Z,5.97
2023-03-20T20:36:46.068Z,5.77
2023-03-20T20:40:09.809Z,5.47
2023-03-20T20:44:16.530Z,6.47
2023-03-20T20:48:15.067Z,4.83
2023-03-20T20:52:17.046Z,5.60
2023-03-20T20:56:18.564Z,6.43
2023-03-20T21:00:22.486Z,4.97
2023-03-20T21:04:23.593Z,5.50
2023-03-20T21:08:24.913Z,5.07
2023-03-20T21:12:38.211Z,4.13
2023-03-20T21:16:31.260Z,5.13
2023-03-20T21:20:33.397Z,5.23
2023-03-20T21:24:35.092Z,4.93
2023-03-20T21:28:36.629Z,4.50
2023-03-20T21:32:39.183Z,4.93
2023-03-20T21:36:41.628Z,4.67
2023-03-20T21:40:43.745Z,5.03
2023-03-20T21:45:35.850Z,3.83
2023-03-20T21:53:34.335Z,4.13
2023-03-20T21:57:29.359Z,4.40
2023-03-20T22:01:46.013Z,3.60
2023-03-20T22:05:43.330Z,4.17
2023-03-20T22:14:05.930Z,3.40
2023-03-20T22:38:12.850Z,3.73
2023-03-20T22:42:24.161Z,4.23
2023-03-20T22:45:42.711Z,3.60
2023-03-20T22:49:39.104Z,4.30
2023-03-20T22:53:40.282Z,3.63
2023-03-20T22:57:47.680Z,4.17
2023-03-20T23:01:43.964Z,4.30
2023-03-20T23:05:45.172Z,4.50
2023-03-20T23:09:47.740Z,4.00
2023-03-20T23:13:49.526Z,3.80
2023-03-20T23:17:50.770Z,3.67
2023-03-20T23:21:51.880Z,3.73
2023-03-20T23:26:10.810Z,4.33
2023-03-20T23:30:12.834Z,3.87
2023-03-20T23:34:14.770Z,3.70
2023-03-20T23:38:16.597Z,4.00
2023-03-20T23:42:30.019Z,3.97
2023-03-20T23:46:21.379Z,5.50
2023-03-20T23:54:32.332Z,4.70
2023-03-20T23:58:34.751Z,4.93
